createdAt,value
2022-12-11T00:09:54.444Z,95338.69
2022-12-11T00:24:55.850Z,95331.25
2022-12-11T00:39:57.178Z,95312.84
2022-12-11T00:54:58.566Z,95323.13
2022-12-11T01:10:26.520Z,95343.47
2022-12-11T01:25:27.984Z,95362.19
2022-12-11T01:40:29.741Z,95364.88
2022-12-11T01:55:31.196Z,95369.31
2022-12-11T02:10:32.563Z,95370.44
2022-12-11T02:25:33.907Z,95376.59
2022-12-11T02:40:35.291Z,95375.97
2022-12-11T02:55:37.344Z,95374.19
2022-12-11T03:10:38.747Z,95366.28
2022-12-11T03:25:40.108Z,95366.94
2022-12-11T03:40:41.459Z,95361.44
2022-12-11T03:55:42.821Z,95363.56
2022-12-11T04:10:44.171Z,95357.31
2022-12-11T04:25:45.696Z,95339.63
2022-12-11T04:40:47.070Z,95337.38
2022-12-11T04:55:48.430Z,95333.72
2022-12-11T05:10:50.270Z,95327.56
2022-12-11T05:25:51.676Z,95341.56
2022-12-11T05:40:53.030Z,95334.31
2022-12-11T05:55:54.386Z,95320.16
2022-12-11T06:10:55.750Z,95308.63
2022-12-11T06:25:57.143Z,95314.44
2022-12-11T06:40:58.535Z,95315.50
2022-12-11T06:55:59.900Z,95330.94
2022-12-11T07:11:01.290Z,95324.47
2022-12-11T07:26:02.714Z,95321.19
2022-12-11T07:41:04.650Z,95323.66
2022-12-11T07:56:06.083Z,95326.91
2022-12-11T08:11:07.443Z,95326.66
2022-12-11T08:26:08.836Z,95331.31
2022-12-11T08:41:10.817Z,95328.34
2022-12-11T08:56:13.302Z,95330.47
2022-12-11T09:11:14.724Z,95319.34
2022-12-11T09:26:16.179Z,95313.19
2022-12-11T09:41:17.759Z,95324.50
2022-12-11T09:56:19.238Z,95308.28
2022-12-11T10:11:20.638Z,95288.03
2022-12-11T10:26:23.245Z,95291.13
2022-12-11T10:41:24.642Z,95274.34
2022-12-11T10:56:26.118Z,95260.69
2022-12-11T11:11:27.647Z,95245.19
2022-12-11T11:26:43.888Z,95234.25
2022-12-11T11:41:50.985Z,95236.69
2022-12-11T11:56:52.377Z,95220.69
2022-12-11T12:11:53.755Z,95214.81
2022-12-11T12:26:55.203Z,95212.09
2022-12-11T12:42:05.642Z,95212.38
2022-12-11T12:57:09.210Z,95211.25
2022-12-11T13:12:10.824Z,95198.66
2022-12-11T13:27:12.288Z,95207.69
2022-12-11T13:42:17.448Z,95206.03
2022-12-11T13:57:20.820Z,95223.28
2022-12-11T14:12:22.335Z,95213.84
2022-12-11T14:27:23.753Z,95217.69
2022-12-11T14:42:25.216Z,95235.16
2022-12-11T14:57:26.950Z,95258.66
2022-12-11T15:12:28.697Z,95250.72
2022-12-11T15:27:30.811Z,95262.25
2022-12-11T15:42:32.192Z,95259.53
2022-12-11T15:57:33.623Z,95278.88
2022-12-11T16:12:35.416Z,95277.69
2022-12-11T16:27:37.670Z,95288.16
2022-12-11T16:42:39.095Z,95283.34
2022-12-11T16:57:40.541Z,95279.59
2022-12-11T17:12:41.941Z,95270.63
2022-12-11T17:27:44.781Z,95265.50
2022-12-11T17:42:46.167Z,95266.31
2022-12-11T17:57:47.574Z,95266.81
2022-12-11T18:12:48.972Z,95249.00
2022-12-11T18:27:50.660Z,95261.97
2022-12-11T18:42:52.157Z,95272.47
2022-12-11T18:57:53.685Z,95261.28
2022-12-11T19:12:55.252Z,95280.31
2022-12-11T19:27:57.011Z,95268.25
2022-12-11T19:42:58.744Z,95260.38
2022-12-11T19:58:00.123Z,95269.78
2022-12-11T20:13:04.489Z,95271.88
2022-12-11T20:28:05.914Z,95275.25
2022-12-11T20:43:07.292Z,95273.13
2022-12-11T20:58:08.929Z,95269.66
2022-12-11T21:13:10.597Z,95278.25
2022-12-11T21:28:11.980Z,95267.78
2022-12-11T21:43:13.354Z,95277.13
2022-12-11T21:58:15.825Z,95282.63
2022-12-11T22:13:17.347Z,95281.44
2022-12-11T22:28:18.765Z,95297.75
2022-12-11T22:43:20.198Z,95295.28
2022-12-11T22:58:22.162Z,95300.03
2022-12-11T23:13:23.648Z,95299.50
2022-12-11T23:28:25.070Z,95298.38
2022-12-11T23:43:26.449Z,95306.44
2022-12-11T23:58:27.841Z,95307.97
